Portada
METAR-TAF:

METAR-TAF

Aeroports :

Haikou, Xina

latitud: 19-56-05N, longitud: 110-27-32E, altitud: 23 m

Observació

L'informe es va fer fa 27 minuts, a les 11:00 UTC
Vent 8 kt del Est
Temperatura 24°C
Humitat 78%
Pressió 1015 hPa
Visibilitat 10 km o més
Núvols disperses a una alçada de 2600 ft
Cel ennuvolat a una alçada de 4000 ft

METAR: ZJHK 091100Z 10004MPS 9999 SCT026 BKN040 24/20 Q1015 NOSIG

Hora: 19:27 (11:27 UTC)

Pronòstic

L'informe es va fer fa 10 hores i 23 minuts, a les 01:04 UTC
Pronòstic vàlid del 09 a les 06 UTC al 10 a les 06 UTC
Vent 8 kt del Est
Visibilitat: 5000 m
Cel ennuvolat a una alçada de 1200 ft
Cel cobert a una alçada de 2600 ft
boirina
Evolucionant progressivament
l' 09 a les 12 UTC al 09 a les 13 UTC
Núvols disperses a una alçada de 1500 ft
Cel ennuvolat a una alçada de 3000 ft

TAF: ZJHK 090104Z 0906/1006 10004MPS 5000 BR BKN012 OVC026 TX25/0906Z TN21/0921Z BECMG 0912/0913 SCT015 BKN030

Observacions i pronòstics meteorològics de més de 4000 aeroports (METAR i TAF).

Les estacions disponibles són els punts grocs i vermells al mapa.

Posi el ratolí al punt desitjat per veure el nom de l'estació.

Feu clic per veure les observacions i els pronòstics meteorològics.

Per canviar el mapa: feu clic els botons verds amb una creu de color negre per apropar; al botó verd amb un guió per allunyar la imatge; o en les fletxes verdes per a mapes adjacents.


METAR-TAF: